Terminal Aerodrome Forecast
Issued by NWS

Home | Current Version | Previous Version | Text Only | Print | Product List | Glossary Off
Versions: 1 2 3 4 5 6 7 8 9 10 11 12 13 14

000
FTUS43 KOAX 240520
TAFCDR
TAF
KCDR 240520Z 2406/2506 17015G35KT P6SM VCSH BKN050 OVC080
     FM240900 24015G24KT P6SM BKN150
     FM241500 28020G32KT P6SM BKN100
     FM250200 28012KT P6SM SCT100=

USA.gov is the U.S. government's official web portal to all federal, state and local government web resources and services.